Terminal Aerodrome Forecast
Issued by NWS

Home | Current Version | Previous Version | Text Only | Print | Product List | Glossary On
Versions: 1 2 3 4 5 6 7 8 9 10 11 12 13 14 15 16 17 18
573
FTUS42 TJSJ 301742
TAFJBQ
TAF
TJBQ 301742Z 3018/3118 VRB12KT P6SM VCTS SCT020CB BKN040 OVC090
      TEMPO 3018/3020 RA SCT012 BKN025
     FM302300 12005KT P6SM FEW030 SCT070
     FM311400 08013KT P6SM SCT030 SCT060
      AMD NOT SKED 3102/3111=

USA.gov is the U.S. government's official web portal to all federal, state and local government web resources and services.